Hlavní strana
METAR-TAF:

METAR-TAF

Letiště :

Walvis Bay, Namibie

zeměpisná šířka: 22-58-59S, zeměpisná délka: 014-39E, výška: 46 m

Aktuální stav počasí

Zpráva byla vytvořena před 52 minutami, v 12:00 UTC
Severní vítr 9 kt
Teplota 21°C
Vlhkost vzduchu 49%
Tlak 1019 hPa

METAR: FYWB 261200Z AUTO 36009KT //// // ////// 21/10 Q1019

Čas: 14:52 (12:52 UTC)

Předpověď počasí

Zpráva byla vytvořena před 2 hodinami a 52 minutami, v 10:00 UTC
Předpověď platná od 26 v 12 UTC do 27 v 12 UTC
Západoseverozápadní vítr 4 kt
Viditelnost 10 km a více
Žádná oblačnost pod 1500 m, nevyskytují se cumulonimby.
Změna
od 26 v 13 UTC do 26 v 15 UTC
Jihojihozápadní vítr 15 kt
Změna
od 26 v 19 UTC do 26 v 21 UTC
Jihojihovýchodní vítr 5 kt

TAF: FYWB 261000Z 2612/2712 29004KT CAVOK BECMG 2613/2615 20015KT BECMG 2619/2621 16005KT

Stav a předpovědi počasí z více než 4 000 letišť (zprávy METAR a TAF).

Červené a žluté tečky na mapě představují dostupné meteorologické stanice.

Když kurzor umístíte na tečku, zobrazí se název stanice.

Pak kliknutím zobrazíte stav a předpověď počasí.

Chcete-li změnit mapu, kliknutím na zelené tlačítko se znaménkem +mapu přiblížíte, kliknutím na zelené tlačítko se znaménkem – mapu oddálíte a kliknutím na zelené šipky přejdete na sousední mapy.


METAR-TAF: